createdAt,value
2022-11-27T00:02:23.322Z,99.90
2022-11-27T00:04:50.386Z,99.90
2022-11-27T00:07:17.392Z,99.90
2022-11-27T00:09:44.616Z,99.90
2022-11-27T00:12:11.615Z,99.90
2022-11-27T00:14:38.609Z,99.90
2022-11-27T00:17:05.858Z,99.90
2022-11-27T00:19:32.828Z,99.90
2022-11-27T00:21:59.935Z,99.90
2022-11-27T00:24:26.937Z,99.90
2022-11-27T00:26:53.957Z,99.90
2022-11-27T00:29:20.977Z,99.90
2022-11-27T00:47:53.971Z,99.90
2022-11-27T00:50:20.951Z,99.80
2022-11-27T00:52:47.887Z,99.80
2022-11-27T00:55:14.875Z,99.90
2022-11-27T00:57:42.105Z,99.90
2022-11-27T01:00:09.594Z,99.90
2022-11-27T01:02:36.671Z,99.90
2022-11-27T01:05:03.712Z,99.90
2022-11-27T01:07:30.729Z,99.90
2022-11-27T01:09:57.712Z,99.90
2022-11-27T01:12:24.648Z,99.90
2022-11-27T01:14:51.644Z,99.90
2022-11-27T01:17:18.586Z,99.90
2022-11-27T01:19:45.503Z,99.90
2022-11-27T01:22:12.423Z,99.90
2022-11-27T01:24:39.662Z,99.90
2022-11-27T01:27:06.894Z,99.90
2022-11-27T01:29:33.819Z,99.90
2022-11-27T01:32:00.853Z,99.90
2022-11-27T01:34:27.777Z,99.90
2022-11-27T01:36:54.745Z,99.90
2022-11-27T01:39:24.082Z,99.90
2022-11-27T01:41:51.315Z,99.90
2022-11-27T01:44:24.199Z,99.90
2022-11-27T01:46:54.023Z,99.90
2022-11-27T01:49:24.363Z,99.90
2022-11-27T01:52:11.335Z,99.90
2022-11-27T01:54:56.661Z,99.40
2022-11-27T01:57:25.441Z,99.60
2022-11-27T01:59:53.455Z,99.40
2022-11-27T02:02:20.439Z,99.40
2022-11-27T02:04:47.526Z,99.30
2022-11-27T02:07:14.684Z,99.30
2022-11-27T02:09:41.838Z,99.30
2022-11-27T02:12:14.560Z,99.20
2022-11-27T02:14:50.450Z,99.00
2022-11-27T02:17:22.964Z,99.30
2022-11-27T02:19:52.752Z,99.50
2022-11-27T02:22:36.166Z,99.40
2022-11-27T02:25:08.946Z,99.30
2022-11-27T02:27:54.749Z,99.30
2022-11-27T02:30:21.699Z,99.00
2022-11-27T02:32:55.971Z,99.50
2022-11-27T02:35:31.567Z,99.60
2022-11-27T02:38:14.630Z,98.90
2022-11-27T02:40:44.475Z,98.80
2022-11-27T02:43:13.763Z,99.30
2022-11-27T02:45:42.608Z,98.90
2022-11-27T02:48:10.381Z,98.40
2022-11-27T02:50:39.098Z,98.20
2022-11-27T02:53:08.372Z,98.70
2022-11-27T02:55:36.303Z,99.40
2022-11-27T02:58:05.730Z,99.10
2022-11-27T03:00:33.242Z,99.40
2022-11-27T03:03:03.290Z,99.60
2022-11-27T03:05:32.752Z,99.50
2022-11-27T03:08:01.466Z,99.30
2022-11-27T03:10:34.229Z,99.70
2022-11-27T03:13:02.498Z,99.50
2022-11-27T03:15:34.981Z,99.40
2022-11-27T03:18:07.691Z,99.70
2022-11-27T03:20:38.775Z,99.70
2022-11-27T03:23:05.701Z,99.20
2022-11-27T03:25:32.900Z,99.10
2022-11-27T03:28:04.888Z,98.90
2022-11-27T03:30:31.835Z,98.80
2022-11-27T03:32:58.860Z,98.40
2022-11-27T03:35:26.919Z,98.60
2022-11-27T03:37:54.557Z,99.20
2022-11-27T03:40:24.132Z,99.10
2022-11-27T03:42:51.089Z,99.10
2022-11-27T03:45:36.557Z,99.20
2022-11-27T03:48:10.795Z,99.20
2022-11-27T03:50:40.525Z,99.20
2022-11-27T03:53:07.713Z,98.90
2022-11-27T03:55:43.706Z,98.90
2022-11-27T03:58:23.107Z,99.00
2022-11-27T04:00:50.940Z,99.30
2022-11-27T04:03:23.035Z,99.40
2022-11-27T04:05:49.984Z,99.60
2022-11-27T04:08:17.041Z,99.60
2022-11-27T04:10:43.995Z,99.50
2022-11-27T04:13:11.059Z,99.50
2022-11-27T04:15:38.245Z,99.50
2022-11-27T04:18:05.285Z,99.50
2022-11-27T04:20:32.529Z,99.20
2022-11-27T04:22:59.546Z,99.50
2022-11-27T04:25:26.665Z,99.60
2022-11-27T04:27:53.715Z,99.60
2022-11-27T04:30:21.147Z,99.40
2022-11-27T04:32:48.118Z,99.50
2022-11-27T04:35:15.166Z,99.30
2022-11-27T04:37:42.112Z,98.90
2022-11-27T04:40:09.369Z,98.60
2022-11-27T04:42:36.359Z,98.70
2022-11-27T04:45:03.475Z,98.90
2022-11-27T04:47:30.428Z,99.10
2022-11-27T04:49:57.393Z,99.00
2022-11-27T04:52:24.324Z,99.10
2022-11-27T04:54:55.357Z,99.30
2022-11-27T04:57:25.395Z,99.30
2022-11-27T04:59:52.389Z,99.40
2022-11-27T05:02:19.423Z,99.40
2022-11-27T05:04:46.399Z,99.50
2022-11-27T05:07:13.468Z,99.60
2022-11-27T05:09:40.506Z,99.50
2022-11-27T05:12:07.562Z,99.60
2022-11-27T05:14:34.545Z,99.40
2022-11-27T05:17:01.969Z,99.50
2022-11-27T05:19:29.948Z,99.90
2022-11-27T05:21:57.471Z,99.90
2022-11-27T05:24:25.729Z,99.70
2022-11-27T05:26:52.789Z,99.70
2022-11-27T05:29:20.136Z,99.90
2022-11-27T05:31:47.311Z,99.90
2022-11-27T05:34:14.960Z,99.80
2022-11-27T05:36:42.399Z,99.80
2022-11-27T05:39:09.919Z,99.90
2022-11-27T05:41:37.599Z,99.90
2022-11-27T05:44:05.433Z,99.90
2022-11-27T05:46:32.839Z,99.90
2022-11-27T05:48:59.815Z,99.90
2022-11-27T05:51:26.830Z,99.90
2022-11-27T05:53:53.957Z,99.90
2022-11-27T05:56:20.912Z,99.90
2022-11-27T05:58:48.452Z,99.90
2022-11-27T06:01:16.404Z,99.90
2022-11-27T06:03:43.484Z,99.90
2022-11-27T06:06:12.194Z,99.90
2022-11-27T06:08:39.766Z,99.90
2022-11-27T06:11:10.762Z,99.90
2022-11-27T06:13:37.927Z,99.90
2022-11-27T06:16:08.746Z,99.90
2022-11-27T06:18:35.863Z,99.90
2022-11-27T06:21:06.536Z,99.90
2022-11-27T06:23:33.594Z,99.90
2022-11-27T06:26:08.855Z,99.90
2022-11-27T06:28:35.835Z,99.90
2022-11-27T06:31:06.858Z,99.90
2022-11-27T06:33:34.504Z,99.90
2022-11-27T06:36:01.880Z,99.90
2022-11-27T06:38:28.858Z,99.90
2022-11-27T06:40:55.871Z,99.90
2022-11-27T06:43:22.812Z,99.90
2022-11-27T06:45:58.997Z,99.90
2022-11-27T06:48:26.378Z,99.90
2022-11-27T06:50:53.415Z,99.90
2022-11-27T06:53:20.507Z,99.90
2022-11-27T06:55:47.513Z,99.90
2022-11-27T06:58:14.455Z,99.90
2022-11-27T07:00:41.409Z,99.90
2022-11-27T07:03:08.534Z,99.90
2022-11-27T07:05:36.411Z,99.90
2022-11-27T07:08:03.833Z,99.90
2022-11-27T07:10:33.221Z,99.90
2022-11-27T07:13:00.156Z,99.90
2022-11-27T07:15:27.144Z,99.90
2022-11-27T07:17:54.077Z,99.90
2022-11-27T07:20:21.029Z,99.90
2022-11-27T07:22:48.026Z,99.90
2022-11-27T07:25:15.110Z,99.90
2022-11-27T07:27:42.042Z,99.90
2022-11-27T07:30:09.200Z,99.90
2022-11-27T07:32:36.191Z,99.90
2022-11-27T07:35:03.199Z,99.90
2022-11-27T07:37:31.161Z,99.90
2022-11-27T07:40:03.070Z,99.90
2022-11-27T07:42:38.929Z,99.90
2022-11-27T07:45:07.696Z,99.90
2022-11-27T07:47:34.696Z,99.90
2022-11-27T07:50:01.807Z,99.90
2022-11-27T07:52:28.763Z,99.90
2022-11-27T07:54:55.714Z,99.90
2022-11-27T07:57:22.659Z,99.90
2022-11-27T07:59:49.583Z,99.90
2022-11-27T08:02:16.625Z,99.90
2022-11-27T08:04:44.013Z,99.90
2022-11-27T08:07:11.504Z,99.90
2022-11-27T08:09:39.924Z,99.90
2022-11-27T08:12:07.321Z,99.90
2022-11-27T08:14:34.529Z,99.90
2022-11-27T08:17:01.527Z,99.90
2022-11-27T08:19:28.569Z,99.90
2022-11-27T08:21:57.471Z,99.90
2022-11-27T08:24:24.550Z,99.90
2022-11-27T08:26:52.212Z,99.90
2022-11-27T08:29:19.198Z,99.90
2022-11-27T08:31:46.163Z,99.90
2022-11-27T08:34:13.173Z,99.90
2022-11-27T08:36:40.137Z,99.90
2022-11-27T08:39:07.152Z,99.90
2022-11-27T08:41:34.285Z,99.90
2022-11-27T08:44:02.727Z,99.90
2022-11-27T08:46:32.554Z,99.90
2022-11-27T08:49:00.561Z,99.90
2022-11-27T08:51:27.717Z,99.90
2022-11-27T08:53:54.757Z,99.90
2022-11-27T08:56:23.191Z,99.90
2022-11-27T08:58:50.276Z,99.90
2022-11-27T09:01:18.734Z,99.90
2022-11-27T09:03:46.696Z,99.90
2022-11-27T09:06:16.007Z,99.90
2022-11-27T09:08:43.644Z,99.90
2022-11-27T09:11:11.224Z,99.90
2022-11-27T09:13:39.245Z,99.90
2022-11-27T09:16:07.585Z,99.90
2022-11-27T09:18:34.532Z,99.90
2022-11-27T09:21:02.477Z,99.90
2022-11-27T09:23:29.680Z,99.90
2022-11-27T09:26:00.255Z,99.90
2022-11-27T09:28:31.321Z,99.90
2022-11-27T09:31:02.375Z,99.90
2022-11-27T09:33:30.459Z,99.90
2022-11-27T09:35:57.578Z,99.90
2022-11-27T09:38:24.628Z,99.90
2022-11-27T09:40:52.955Z,99.90
2022-11-27T09:43:23.797Z,99.90
2022-11-27T09:45:54.848Z,99.90
2022-11-27T09:48:25.589Z,99.90
2022-11-27T09:50:53.289Z,99.90
2022-11-27T09:53:32.803Z,99.90
2022-11-27T09:56:00.591Z,99.90
2022-11-27T09:58:36.713Z,99.90
2022-11-27T10:01:11.419Z,99.90
2022-11-27T10:03:40.252Z,99.90
2022-11-27T10:06:21.313Z,99.90
2022-11-27T10:08:58.015Z,99.90
2022-11-27T10:11:30.712Z,99.90
2022-11-27T10:14:09.715Z,99.90
2022-11-27T10:16:44.377Z,99.90
2022-11-27T10:19:30.941Z,99.90
2022-11-27T10:22:02.612Z,99.90
2022-11-27T10:24:49.800Z,99.90
2022-11-27T10:27:22.526Z,99.90
2022-11-27T10:29:55.839Z,99.90
2022-11-27T10:32:54.002Z,99.90
2022-11-27T10:35:22.243Z,99.90
2022-11-27T10:37:52.889Z,99.90
2022-11-27T10:40:24.716Z,99.90
2022-11-27T10:42:51.653Z,99.90
2022-11-27T10:45:45.419Z,99.90
2022-11-27T10:48:13.138Z,99.90
2022-11-27T10:50:41.469Z,99.90
2022-11-27T10:53:10.525Z,99.90
2022-11-27T10:55:37.452Z,99.90
2022-11-27T10:58:36.602Z,99.90
2022-11-27T11:01:04.775Z,99.90
2022-11-27T11:03:31.825Z,99.90
2022-11-27T11:06:19.902Z,99.90
2022-11-27T11:08:48.514Z,99.90
2022-11-27T11:11:24.358Z,99.90
2022-11-27T11:13:51.359Z,99.90
2022-11-27T11:16:24.304Z,99.90
2022-11-27T11:18:52.905Z,99.90
2022-11-27T11:21:26.019Z,99.90
2022-11-27T11:23:57.347Z,99.90
2022-11-27T11:26:35.705Z,99.90
2022-11-27T11:29:04.978Z,99.90
2022-11-27T11:31:39.654Z,99.90
2022-11-27T11:34:16.155Z,99.90
2022-11-27T11:36:53.554Z,99.90
2022-11-27T11:39:24.258Z,99.90
2022-11-27T11:41:51.287Z,99.90
2022-11-27T11:44:29.849Z,99.90
2022-11-27T11:46:56.783Z,99.90
2022-11-27T11:49:27.309Z,99.90
2022-11-27T11:51:54.237Z,99.90
2022-11-27T11:54:44.386Z,99.90
2022-11-27T11:57:34.707Z,99.90
2022-11-27T12:00:04.601Z,99.90
2022-11-27T12:02:50.180Z,99.90
2022-11-27T12:05:35.736Z,99.90
2022-11-27T12:08:05.524Z,99.90
2022-11-27T12:11:04.668Z,99.90
2022-11-27T12:13:50.192Z,99.90
2022-11-27T12:16:36.696Z,99.90
2022-11-27T12:19:12.654Z,99.90
2022-11-27T12:22:08.883Z,99.90
2022-11-27T12:24:35.843Z,99.90
2022-11-27T12:27:21.312Z,99.90
2022-11-27T12:30:02.005Z,99.90
2022-11-27T12:32:31.813Z,99.90
2022-11-27T12:35:17.380Z,99.90
2022-11-27T12:37:53.975Z,99.90
2022-11-27T12:40:20.909Z,99.90
2022-11-27T12:42:53.653Z,99.90
2022-11-27T12:45:27.576Z,99.90
2022-11-27T12:47:54.777Z,99.90
2022-11-27T12:50:34.753Z,99.90
2022-11-27T12:53:11.572Z,99.90
2022-11-27T12:55:40.002Z,99.90
2022-11-27T12:58:10.689Z,99.90
2022-11-27T13:00:41.219Z,99.90
2022-11-27T13:03:13.827Z,99.90
2022-11-27T13:05:46.380Z,99.90
2022-11-27T13:08:20.546Z,99.90
2022-11-27T13:10:52.022Z,99.90
2022-11-27T13:13:29.094Z,99.90
2022-11-27T13:15:57.787Z,99.90
2022-11-27T13:18:35.675Z,99.90
2022-11-27T13:21:05.727Z,99.90
2022-11-27T13:23:33.155Z,99.90
2022-11-27T13:26:03.198Z,99.90
2022-11-27T13:28:39.519Z,99.90
2022-11-27T13:31:07.162Z,99.90
2022-11-27T13:33:35.920Z,99.90
2022-11-27T13:36:04.491Z,99.90
2022-11-27T13:38:33.438Z,99.90
2022-11-27T13:41:05.561Z,99.90
2022-11-27T13:43:38.378Z,99.90
2022-11-27T13:46:11.838Z,99.90
2022-11-27T13:48:40.897Z,99.90
2022-11-27T13:51:09.373Z,99.90
2022-11-27T13:53:38.181Z,99.90
2022-11-27T13:56:05.874Z,99.90
2022-11-27T13:58:34.679Z,99.90
2022-11-27T14:01:12.942Z,99.90
2022-11-27T14:03:40.112Z,99.90
2022-11-27T14:06:18.433Z,99.90
2022-11-27T14:08:53.851Z,99.90
2022-11-27T14:11:50.865Z,99.90
2022-11-27T14:14:19.519Z,99.90
2022-11-27T14:16:53.839Z,99.90
2022-11-27T14:19:30.643Z,99.90
2022-11-27T14:22:00.954Z,99.90
2022-11-27T14:24:35.758Z,99.90
2022-11-27T14:27:07.519Z,99.90
2022-11-27T14:29:34.460Z,99.90
2022-11-27T14:32:02.286Z,99.90
2022-11-27T14:34:30.533Z,99.90
2022-11-27T14:36:58.186Z,99.90
2022-11-27T14:39:27.942Z,99.90
2022-11-27T14:41:57.734Z,99.90
2022-11-27T14:44:24.911Z,99.90
2022-11-27T14:46:52.293Z,99.90
2022-11-27T14:49:20.026Z,99.90
2022-11-27T14:51:49.140Z,99.90
2022-11-27T14:54:23.359Z,99.90
2022-11-27T14:56:50.585Z,99.90
2022-11-27T14:59:21.934Z,99.90
2022-11-27T15:01:59.860Z,99.90
2022-11-27T15:04:34.678Z,99.90
2022-11-27T15:07:04.814Z,99.90
2022-11-27T15:09:32.649Z,99.90
2022-11-27T15:12:15.403Z,99.90
2022-11-27T15:14:46.868Z,99.90
2022-11-27T15:17:25.255Z,99.90
2022-11-27T15:19:52.512Z,99.90
2022-11-27T15:22:19.726Z,99.90
2022-11-27T15:24:46.684Z,99.90
2022-11-27T15:27:20.970Z,99.90
2022-11-27T15:29:50.631Z,99.90
2022-11-27T15:32:23.029Z,99.90
2022-11-27T15:34:51.520Z,99.90
2022-11-27T15:37:22.911Z,99.90
2022-11-27T15:39:56.251Z,99.90
2022-11-27T15:42:23.664Z,99.90
2022-11-27T15:44:53.618Z,99.90
2022-11-27T15:47:20.528Z,99.90
2022-11-27T15:49:47.528Z,99.90
2022-11-27T15:52:14.734Z,99.90
2022-11-27T15:54:42.052Z,99.90
2022-11-27T15:57:09.166Z,99.90
2022-11-27T15:59:36.132Z,99.90
2022-11-27T16:02:03.201Z,99.90
2022-11-27T16:04:30.736Z,99.90
2022-11-27T16:06:57.709Z,99.90
2022-11-27T16:09:24.678Z,99.90
2022-11-27T16:11:51.665Z,99.90
2022-11-27T16:14:18.668Z,99.90
2022-11-27T16:16:45.766Z,99.90
2022-11-27T16:19:14.763Z,99.90
2022-11-27T16:21:41.839Z,99.90
2022-11-27T16:24:10.792Z,99.90
2022-11-27T16:26:38.145Z,99.90
2022-11-27T16:29:05.588Z,99.90
2022-11-27T16:31:32.693Z,99.90
2022-11-27T16:34:01.847Z,99.90
2022-11-27T16:36:29.019Z,99.90
2022-11-27T16:38:56.012Z,99.90
2022-11-27T16:41:23.462Z,99.90
2022-11-27T16:43:51.425Z,99.90
2022-11-27T16:46:19.750Z,99.90
2022-11-27T16:48:47.237Z,99.90
2022-11-27T16:51:24.325Z,99.90
2022-11-27T16:53:52.274Z,99.90
2022-11-27T16:56:20.386Z,99.90
2022-11-27T16:58:47.569Z,99.90
2022-11-27T17:01:16.247Z,99.90
2022-11-27T17:03:43.391Z,99.90
2022-11-27T17:06:14.779Z,99.90
2022-11-27T17:08:41.976Z,99.90
2022-11-27T17:11:09.536Z,99.90
2022-11-27T17:13:36.693Z,99.90
2022-11-27T17:16:04.722Z,99.90
2022-11-27T17:18:31.688Z,99.90
2022-11-27T17:21:02.636Z,99.90
2022-11-27T17:23:29.879Z,99.90
2022-11-27T17:25:56.863Z,99.90
2022-11-27T17:28:23.897Z,99.90
2022-11-27T17:30:50.987Z,99.90
2022-11-27T17:33:18.025Z,99.90
2022-11-27T17:35:45.023Z,99.90
2022-11-27T17:38:13.228Z,99.90
2022-11-27T17:40:40.313Z,99.90
2022-11-27T17:43:07.258Z,99.90
2022-11-27T17:45:34.292Z,99.90
2022-11-27T17:48:02.118Z,99.90
2022-11-27T17:50:29.071Z,99.90
2022-11-27T17:52:55.999Z,99.90
2022-11-27T17:55:23.101Z,99.90
2022-11-27T17:57:50.116Z,99.90
2022-11-27T18:00:18.641Z,99.90
2022-11-27T18:02:46.063Z,99.90
2022-11-27T18:05:13.100Z,99.90
2022-11-27T18:07:40.141Z,99.90
2022-11-27T18:10:07.479Z,99.90
2022-11-27T18:12:34.488Z,99.90
2022-11-27T18:15:01.737Z,99.90
2022-11-27T18:17:29.093Z,99.90
2022-11-27T18:19:57.241Z,99.90
2022-11-27T18:22:24.324Z,99.90
2022-11-27T18:24:51.312Z,99.90
2022-11-27T18:27:18.714Z,99.90
2022-11-27T18:29:46.309Z,99.90
2022-11-27T18:32:14.547Z,99.90
2022-11-27T18:34:41.680Z,99.90
2022-11-27T18:37:08.720Z,99.90
2022-11-27T18:39:36.457Z,99.90
2022-11-27T18:42:04.868Z,99.90
2022-11-27T18:44:32.311Z,99.90
2022-11-27T18:46:59.433Z,99.90
2022-11-27T18:49:26.646Z,99.90
2022-11-27T18:51:54.037Z,99.90
2022-11-27T18:54:21.699Z,99.90
2022-11-27T18:56:48.619Z,99.90
2022-11-27T18:59:15.625Z,99.90
2022-11-27T19:01:43.041Z,99.90
2022-11-27T19:04:11.128Z,99.90
2022-11-27T19:06:38.824Z,99.90
2022-11-27T19:09:06.183Z,99.90
2022-11-27T19:11:34.875Z,99.90
2022-11-27T19:14:01.942Z,99.90
2022-11-27T19:16:36.270Z,99.90
2022-11-27T19:19:04.313Z,99.90
2022-11-27T19:21:32.891Z,99.90
2022-11-27T19:24:01.071Z,99.90
2022-11-27T19:26:29.666Z,99.90
2022-11-27T19:28:57.814Z,99.90
2022-11-27T19:31:25.344Z,99.90
2022-11-27T19:33:53.702Z,99.90
2022-11-27T19:36:21.257Z,99.90
2022-11-27T19:38:53.065Z,99.90
2022-11-27T19:41:20.029Z,99.90
2022-11-27T19:43:47.707Z,99.90
2022-11-27T19:46:19.034Z,99.90
2022-11-27T19:48:46.651Z,99.90
2022-11-27T19:51:14.005Z,99.90
2022-11-27T19:53:41.496Z,99.90
2022-11-27T19:56:09.068Z,99.90
2022-11-27T19:58:36.651Z,99.90
2022-11-27T20:01:10.850Z,99.90
2022-11-27T20:03:38.176Z,99.90
2022-11-27T20:06:10.276Z,99.90
2022-11-27T20:08:37.808Z,99.90
2022-11-27T20:11:06.001Z,99.90
2022-11-27T20:13:33.351Z,99.90
2022-11-27T20:16:00.501Z,99.90
2022-11-27T20:18:28.089Z,99.90
2022-11-27T20:21:14.383Z,99.90
2022-11-27T20:23:42.211Z,99.90
2022-11-27T20:26:10.945Z,99.90
2022-11-27T20:28:41.155Z,99.90
2022-11-27T20:31:12.599Z,99.90
2022-11-27T20:33:39.599Z,99.90
2022-11-27T20:36:10.165Z,99.90
2022-11-27T20:38:37.141Z,99.90
2022-11-27T20:41:11.157Z,99.90
2022-11-27T20:43:38.481Z,99.90
2022-11-27T20:46:07.720Z,99.90
2022-11-27T20:48:35.064Z,99.90
2022-11-27T20:51:09.027Z,99.90
2022-11-27T20:53:36.467Z,99.90
2022-11-27T20:56:04.976Z,99.90
2022-11-27T20:58:32.050Z,99.90
2022-11-27T21:01:00.101Z,99.90
2022-11-27T21:03:27.714Z,99.90
2022-11-27T21:05:54.881Z,99.90
2022-11-27T21:08:22.347Z,99.90
2022-11-27T21:10:50.437Z,99.90
2022-11-27T21:13:17.634Z,99.90
2022-11-27T21:15:45.598Z,99.90
2022-11-27T21:18:12.677Z,99.90
2022-11-27T21:20:40.455Z,99.90
2022-11-27T21:23:07.507Z,99.90
2022-11-27T21:25:34.654Z,99.90
2022-11-27T21:28:01.653Z,99.90
2022-11-27T21:30:28.619Z,99.90
2022-11-27T21:32:55.632Z,99.90
2022-11-27T21:35:23.932Z,99.90
2022-11-27T21:37:53.389Z,99.90
2022-11-27T21:40:20.370Z,99.90
2022-11-27T21:42:47.634Z,99.90
2022-11-27T21:45:14.690Z,99.90
2022-11-27T21:47:41.909Z,99.90
2022-11-27T21:50:09.027Z,99.90
2022-11-27T21:52:36.031Z,99.90
2022-11-27T21:55:05.562Z,99.90
2022-11-27T21:57:34.671Z,99.90
2022-11-27T22:00:01.624Z,99.90
2022-11-27T22:02:28.635Z,99.90
2022-11-27T22:04:55.652Z,99.90
2022-11-27T22:07:22.708Z,99.90
2022-11-27T22:09:49.815Z,99.90
2022-11-27T22:12:16.800Z,99.90
2022-11-27T22:14:44.058Z,99.90
2022-11-27T22:17:11.307Z,99.90
2022-11-27T22:19:42.217Z,99.90
2022-11-27T22:22:09.367Z,99.90
2022-11-27T22:24:36.366Z,99.90
2022-11-27T22:27:03.410Z,99.90
2022-11-27T22:29:30.380Z,99.90
2022-11-27T22:31:57.396Z,99.90
2022-11-27T22:34:24.351Z,99.90
2022-11-27T22:36:51.661Z,99.90
2022-11-27T22:39:18.600Z,99.90
2022-11-27T22:41:45.630Z,99.90
2022-11-27T22:44:16.842Z,99.90
2022-11-27T22:46:43.872Z,99.90
2022-11-27T22:49:12.338Z,99.90
2022-11-27T22:51:39.373Z,99.90
2022-11-27T22:54:07.235Z,99.90
2022-11-27T22:56:34.265Z,99.90
2022-11-27T22:59:30.632Z,99.90
2022-11-27T23:01:48.747Z,99.90
2022-11-27T23:04:15.842Z,99.90
2022-11-27T23:06:47.362Z,99.90
2022-11-27T23:09:14.963Z,99.90
2022-11-27T23:11:41.934Z,99.90
2022-11-27T23:14:09.013Z,99.90
2022-11-27T23:16:36.377Z,99.90
2022-11-27T23:19:03.732Z,99.90
2022-11-27T23:21:30.762Z,99.90
2022-11-27T23:23:57.823Z,99.90
2022-11-27T23:26:24.833Z,99.90
2022-11-27T23:28:52.782Z,99.90
2022-11-27T23:31:31.911Z,99.90
2022-11-27T23:34:01.570Z,99.90
2022-11-27T23:36:29.397Z,99.90
2022-11-27T23:38:56.409Z,99.90
2022-11-27T23:41:24.689Z,99.90
2022-11-27T23:43:52.534Z,99.90
2022-11-27T23:46:20.840Z,99.90
2022-11-27T23:48:48.236Z,99.90
2022-11-27T23:51:17.126Z,99.90
2022-11-27T23:53:44.452Z,99.90
2022-11-27T23:56:13.524Z,99.90
2022-11-27T23:58:46.438Z,99.90
